セブ の空港の天気 - METARとTAF

マクタン・セブ国際空港 ( RPVM / CEB ) - フィリピン セブ / ラプ=ラプ
飛行場実況気象(Metar)
観測時間03/26 14:00 +08 (03/26 06:00 UTC)
風向・風速北北東 5m/s
視程10km以上
天気現象
少しの雲 雲底高度 610m
全天の4割程度の雲 雲底高度 9140m
気温32℃
湿度59%
気圧1012hPa
METARRPVM 260600Z 03010KT 360V070 9999 FEW020 SCT300 32/23 Q1012 NOSIG RMK A2988
過去の天気等 Google飛行場航空写真 Wunderground天気予報

過去48時間のMETAR

飛行場予報(TAF)
発表時間: 3/26 13:00 +08 (3/26 05:00 UTC)
予報対象時間: 26日8時 +08 ~ 27日20時 +08
風向・風速北東 4m/s
視程10km以上
少しの雲 雲底高度 610m
全天の4割程度の雲 雲底高度 9,140m
26日14時 +08 ~ 26日20時 +08 に一時的に
風向・風速北北東 6m/s
視程9,000m
天気現象弱いしゅう雨
少しの積乱雲 雲底高度 550m
全天の4割程度の雲 雲底高度 610m
全天の8割程度の雲 雲底高度 3,050m
26日20時 +08 ~ 27日2時 +08 に一時的に
風向・風速北東 4m/s
少しの雲 雲底高度 610m
全天の8割程度の雲 雲底高度 2,740m
TAF RPVM 260500Z 2600/2712 04007KT 9999 FEW020 SCT300
TEMPO 2606/2612 02012KT 9000 -SHRA FEW018CB SCT020 BKN100
TEMPO 2612/2618 05008KT FEW020 BKN090